createdAt,value
2018-02-17T00:00:59.749Z,0.00
2018-02-17T00:01:59.733Z,0.00
2018-02-17T00:02:59.733Z,0.00
2018-02-17T00:03:59.809Z,0.00
2018-02-17T00:04:59.738Z,0.00
2018-02-17T00:05:59.716Z,0.00
2018-02-17T00:06:59.710Z,0.00
2018-02-17T00:07:59.690Z,0.00
2018-02-17T00:08:59.711Z,0.00
2018-02-17T00:10:02.560Z,0.00
2018-02-17T00:10:59.661Z,0.00
2018-02-17T00:11:59.723Z,0.00
2018-02-17T00:12:59.671Z,0.00
2018-02-17T00:13:59.627Z,0.00
2018-02-17T00:14:59.646Z,0.00
2018-02-17T00:15:59.647Z,0.00
2018-02-17T00:16:59.604Z,0.00
2018-02-17T00:17:59.605Z,0.00
2018-02-17T00:18:59.596Z,0.00
2018-02-17T00:19:59.588Z,0.00
2018-02-17T00:20:59.582Z,0.00
2018-02-17T00:21:59.566Z,0.00
2018-02-17T00:22:59.551Z,0.00
2018-02-17T00:23:59.618Z,0.00
2018-02-17T00:24:59.559Z,0.00
2018-02-17T00:25:59.577Z,0.00
2018-02-17T00:26:59.547Z,0.00
2018-02-17T00:27:59.557Z,0.00
2018-02-17T00:28:59.526Z,0.00
2018-02-17T00:29:59.530Z,0.00
2018-02-17T00:30:59.534Z,0.00
2018-02-17T00:31:59.499Z,0.00
2018-02-17T00:32:59.480Z,0.00
2018-02-17T00:33:59.523Z,0.00
2018-02-17T00:34:59.515Z,0.00
2018-02-17T00:35:59.551Z,0.00
2018-02-17T00:36:59.520Z,0.00
2018-02-17T00:37:59.488Z,0.00
2018-02-17T00:38:59.548Z,0.00
2018-02-17T00:40:01.050Z,0.00
2018-02-17T00:40:59.527Z,0.00
2018-02-17T00:41:59.464Z,0.00
2018-02-17T00:42:59.470Z,0.00
2018-02-17T00:43:59.414Z,0.00
2018-02-17T00:44:59.399Z,0.00
2018-02-17T00:45:59.390Z,0.00
2018-02-17T00:47:01.081Z,0.00
2018-02-17T00:47:59.439Z,0.00
2018-02-17T00:48:59.484Z,0.00
2018-02-17T00:49:59.326Z,0.00
2018-02-17T00:50:59.333Z,0.00
2018-02-17T00:51:59.379Z,0.00
2018-02-17T00:52:59.343Z,0.00
2018-02-17T00:53:59.314Z,0.00
2018-02-17T00:54:59.332Z,0.00
2018-02-17T00:55:59.274Z,0.00
2018-02-17T00:56:59.303Z,0.00
2018-02-17T00:57:59.256Z,0.00
2018-02-17T00:59:01.099Z,0.00
2018-02-17T00:59:59.261Z,0.00
2018-02-17T01:00:59.275Z,0.00
2018-02-17T01:01:59.285Z,0.00
2018-02-17T01:03:01.116Z,0.00
2018-02-17T01:03:59.264Z,0.00
2018-02-17T01:04:59.195Z,0.00
2018-02-17T01:06:01.056Z,0.00
2018-02-17T01:06:59.210Z,0.00
2018-02-17T01:07:59.181Z,0.00
2018-02-17T01:08:59.160Z,0.00
2018-02-17T01:10:01.051Z,0.00
2018-02-17T01:10:59.207Z,0.00
2018-02-17T01:11:59.088Z,0.00
2018-02-17T01:12:59.156Z,0.00
2018-02-17T01:13:59.111Z,0.00
2018-02-17T01:14:59.085Z,0.00
2018-02-17T01:15:59.062Z,0.00
2018-02-17T01:16:59.055Z,0.00
2018-02-17T01:17:59.065Z,0.00
2018-02-17T01:18:59.025Z,0.00
2018-02-17T01:19:59.016Z,0.00
2018-02-17T01:20:59.016Z,0.00
2018-02-17T01:21:59.001Z,0.00
2018-02-17T01:22:59.015Z,0.00
2018-02-17T01:23:59.021Z,0.00
2018-02-17T01:24:59.028Z,0.00
2018-02-17T01:25:58.987Z,0.00
2018-02-17T01:26:58.949Z,0.00
2018-02-17T01:27:59.028Z,0.00
2018-02-17T01:28:58.923Z,0.00
2018-02-17T01:29:58.962Z,0.00
2018-02-17T01:30:58.910Z,0.00
2018-02-17T01:31:58.900Z,0.00
2018-02-17T01:32:58.968Z,0.00
2018-02-17T01:33:58.872Z,0.00
2018-02-17T01:34:58.880Z,0.00
2018-02-17T01:35:58.891Z,0.00
2018-02-17T01:36:58.848Z,0.00
2018-02-17T01:37:58.841Z,0.00
2018-02-17T01:38:58.842Z,0.00
2018-02-17T01:39:58.827Z,0.00
2018-02-17T01:40:58.817Z,0.00
2018-02-17T01:41:58.822Z,0.00
2018-02-17T01:42:58.809Z,0.00
2018-02-17T01:43:58.815Z,0.00
2018-02-17T01:44:58.784Z,0.00
2018-02-17T01:45:58.772Z,0.00
2018-02-17T01:46:58.757Z,0.00
2018-02-17T01:47:58.766Z,0.00
2018-02-17T01:48:58.733Z,0.00
2018-02-17T01:49:58.798Z,0.00
2018-02-17T01:50:58.796Z,0.00
2018-02-17T01:51:58.820Z,0.00
2018-02-17T01:52:58.707Z,0.00
2018-02-17T01:53:58.704Z,0.00
2018-02-17T01:54:58.702Z,0.00
2018-02-17T01:55:58.655Z,0.00
2018-02-17T01:56:58.654Z,0.00
2018-02-17T01:57:58.781Z,0.00
2018-02-17T01:58:58.664Z,0.00
2018-02-17T01:59:58.637Z,0.00
2018-02-17T02:00:58.664Z,0.00
2018-02-17T02:01:58.595Z,0.00
2018-02-17T02:02:58.583Z,0.00
2018-02-17T02:03:58.577Z,0.00
2018-02-17T02:04:58.563Z,0.00
2018-02-17T02:05:58.580Z,0.00
2018-02-17T02:06:58.545Z,0.00
2018-02-17T02:07:58.533Z,0.00
2018-02-17T02:08:58.520Z,0.00
2018-02-17T02:09:58.520Z,0.00
2018-02-17T02:10:58.501Z,0.00
2018-02-17T02:11:58.649Z,0.00
2018-02-17T02:12:58.480Z,0.00
2018-02-17T02:13:58.468Z,0.00
2018-02-17T02:14:58.463Z,0.00
2018-02-17T02:15:58.459Z,0.00
2018-02-17T02:16:58.443Z,0.00
2018-02-17T02:17:58.431Z,0.00
2018-02-17T02:18:58.421Z,0.00
2018-02-17T02:19:58.407Z,0.00
2018-02-17T02:20:58.399Z,0.00
2018-02-17T02:21:58.400Z,0.00
2018-02-17T02:22:58.380Z,0.00
2018-02-17T02:23:58.370Z,0.00
2018-02-17T02:24:58.359Z,0.00
2018-02-17T02:25:58.350Z,0.00
2018-02-17T02:26:58.339Z,0.00
2018-02-17T02:27:58.331Z,0.00
2018-02-17T02:28:58.317Z,0.00
2018-02-17T02:29:58.334Z,0.00
2018-02-17T02:30:58.324Z,0.00
2018-02-17T02:31:58.287Z,0.00
2018-02-17T02:32:58.278Z,0.00
2018-02-17T02:33:58.296Z,0.00
2018-02-17T02:34:58.261Z,0.00
2018-02-17T02:35:58.245Z,0.00
2018-02-17T02:36:58.235Z,0.00
2018-02-17T02:37:58.226Z,0.00
2018-02-17T02:38:58.219Z,0.00
2018-02-17T02:39:58.204Z,0.00
2018-02-17T02:40:58.204Z,0.00
2018-02-17T02:41:58.248Z,0.00
2018-02-17T02:42:58.227Z,0.00
2018-02-17T02:43:58.190Z,0.00
2018-02-17T02:44:58.239Z,0.00
2018-02-17T02:46:00.095Z,0.00
2018-02-17T02:46:58.158Z,0.00
2018-02-17T02:47:58.139Z,0.00
2018-02-17T02:48:58.225Z,0.00
2018-02-17T02:49:58.102Z,0.00
2018-02-17T02:50:58.092Z,0.00
2018-02-17T02:51:58.098Z,0.00
2018-02-17T02:52:58.081Z,0.00
2018-02-17T02:53:58.078Z,0.00
2018-02-17T02:54:58.052Z,0.00
2018-02-17T02:55:58.038Z,0.00
2018-02-17T02:56:58.030Z,0.00
2018-02-17T02:57:58.019Z,0.00
2018-02-17T02:58:58.012Z,0.00
2018-02-17T02:59:58.000Z,0.00
2018-02-17T03:00:57.992Z,0.00
2018-02-17T03:01:57.993Z,0.00
2018-02-17T03:02:57.969Z,0.00
2018-02-17T03:03:57.959Z,0.00
2018-02-17T03:04:57.946Z,0.00
2018-02-17T03:05:57.936Z,0.00
2018-02-17T03:06:57.923Z,0.00
2018-02-17T03:07:57.916Z,0.00
2018-02-17T03:08:57.904Z,0.00
2018-02-17T03:09:57.893Z,0.00
2018-02-17T03:10:57.888Z,0.00
2018-02-17T03:11:57.874Z,0.00
2018-02-17T03:12:57.875Z,0.00
2018-02-17T03:13:57.854Z,0.00
2018-02-17T03:14:57.844Z,0.00
2018-02-17T03:15:57.831Z,0.00
2018-02-17T03:16:57.818Z,0.00
2018-02-17T03:17:57.926Z,0.00
2018-02-17T03:18:57.896Z,0.00
2018-02-17T03:19:57.876Z,0.00
2018-02-17T03:20:57.854Z,0.00
2018-02-17T03:21:57.813Z,0.00
2018-02-17T03:22:57.788Z,0.00
2018-02-17T03:23:57.783Z,0.00
2018-02-17T03:24:59.630Z,0.00
2018-02-17T03:25:57.803Z,0.00
2018-02-17T03:26:57.770Z,0.00
2018-02-17T03:27:57.776Z,0.00
2018-02-17T03:28:57.721Z,0.00
2018-02-17T03:29:57.689Z,0.00
2018-02-17T03:30:57.674Z,0.00
2018-02-17T03:31:57.665Z,0.00
2018-02-17T03:32:57.652Z,0.00
2018-02-17T03:33:57.682Z,0.00
2018-02-17T03:34:57.699Z,0.00
2018-02-17T03:35:57.624Z,0.00
2018-02-17T03:36:57.622Z,0.00
2018-02-17T03:37:57.617Z,0.00
2018-02-17T03:38:57.645Z,0.00
2018-02-17T03:39:57.619Z,0.00
2018-02-17T03:40:57.609Z,0.00
2018-02-17T03:41:57.559Z,0.00
2018-02-17T03:42:57.554Z,0.00
2018-02-17T03:43:57.573Z,0.00
2018-02-17T03:44:57.561Z,0.00
2018-02-17T03:45:57.530Z,0.00
2018-02-17T03:46:57.535Z,0.00
2018-02-17T03:47:57.499Z,0.00
2018-02-17T03:48:57.544Z,0.00
2018-02-17T03:49:57.480Z,0.00
2018-02-17T03:50:57.488Z,0.00
2018-02-17T03:51:57.539Z,0.00
2018-02-17T03:52:57.548Z,0.00
2018-02-17T03:53:57.494Z,0.00
2018-02-17T03:54:57.490Z,0.00
2018-02-17T03:55:57.459Z,0.00
2018-02-17T03:56:57.496Z,0.00
2018-02-17T03:57:57.438Z,0.00
2018-02-17T03:58:57.521Z,0.00
2018-02-17T03:59:57.423Z,0.00
2018-02-17T04:00:57.401Z,0.00
2018-02-17T04:01:57.370Z,0.00
2018-02-17T04:02:57.379Z,0.00
2018-02-17T04:03:57.349Z,0.00
2018-02-17T04:04:57.385Z,0.00
2018-02-17T04:05:57.332Z,0.00
2018-02-17T04:06:57.366Z,0.00
2018-02-17T04:07:57.286Z,0.00
2018-02-17T04:08:57.307Z,0.00
2018-02-17T04:09:57.312Z,0.00
2018-02-17T04:10:57.265Z,0.00
2018-02-17T04:11:57.338Z,0.00
2018-02-17T04:12:57.283Z,0.00
2018-02-17T04:13:59.093Z,0.00
2018-02-17T04:14:57.354Z,0.00
2018-02-17T04:15:57.340Z,0.00
2018-02-17T04:16:57.298Z,0.00
2018-02-17T04:17:57.438Z,0.00
2018-02-17T04:18:57.204Z,0.00
2018-02-17T04:19:57.156Z,0.00
2018-02-17T04:20:57.139Z,0.00
2018-02-17T04:21:57.141Z,0.00
2018-02-17T04:22:57.126Z,0.00
2018-02-17T04:23:57.105Z,0.00
2018-02-17T04:24:57.106Z,0.00
2018-02-17T04:25:57.090Z,0.00
2018-02-17T04:26:57.076Z,0.00
2018-02-17T04:27:57.072Z,0.00
2018-02-17T04:28:57.055Z,0.00
2018-02-17T04:29:57.041Z,0.00
2018-02-17T04:30:57.035Z,0.00
2018-02-17T04:31:57.034Z,0.00
2018-02-17T04:32:57.015Z,0.00
2018-02-17T04:33:57.028Z,0.00
2018-02-17T04:34:56.996Z,0.00
2018-02-17T04:35:57.041Z,0.00
2018-02-17T04:36:56.965Z,0.00
2018-02-17T04:37:56.971Z,0.00
2018-02-17T04:38:57.001Z,0.00
2018-02-17T04:39:56.992Z,0.00
2018-02-17T04:40:56.927Z,0.00
2018-02-17T04:41:56.938Z,0.00
2018-02-17T04:42:56.953Z,0.00
2018-02-17T04:43:56.940Z,0.00
2018-02-17T04:44:56.951Z,0.00
2018-02-17T04:45:56.968Z,0.00
2018-02-17T04:46:56.906Z,0.00
2018-02-17T04:47:56.876Z,0.00
2018-02-17T04:48:56.904Z,0.00
2018-02-17T04:49:56.834Z,0.00
2018-02-17T04:50:56.838Z,0.00
2018-02-17T04:51:56.825Z,0.00
2018-02-17T04:52:56.852Z,0.00
2018-02-17T04:53:56.874Z,0.00
2018-02-17T04:54:56.784Z,0.00
2018-02-17T04:55:56.794Z,0.00
2018-02-17T04:56:56.841Z,0.00
2018-02-17T04:57:56.828Z,0.00
2018-02-17T04:58:56.731Z,0.00
2018-02-17T04:59:56.720Z,0.00
2018-02-17T05:00:56.735Z,0.00
2018-02-17T05:01:56.721Z,0.00
2018-02-17T05:02:56.733Z,0.00
2018-02-17T05:03:56.732Z,0.00
2018-02-17T05:04:56.690Z,0.00
2018-02-17T05:05:57.011Z,0.00
2018-02-17T05:06:58.636Z,0.00
2018-02-17T05:07:56.793Z,0.00
2018-02-17T05:08:56.798Z,0.00
2018-02-17T05:09:58.651Z,0.00
2018-02-17T05:10:56.778Z,0.00
2018-02-17T05:11:59.817Z,0.00
2018-02-17T05:12:56.708Z,0.00
2018-02-17T05:13:56.702Z,0.00
2018-02-17T05:14:58.576Z,0.00
2018-02-17T05:15:56.800Z,0.00
2018-02-17T05:16:56.649Z,0.00
2018-02-17T05:17:56.920Z,0.00
2018-02-17T05:18:56.643Z,0.00
2018-02-17T05:19:56.612Z,0.00
2018-02-17T05:20:56.548Z,0.00
2018-02-17T05:21:56.501Z,0.00
2018-02-17T05:22:56.497Z,0.00
2018-02-17T05:23:56.494Z,0.00
2018-02-17T05:24:56.453Z,0.00
2018-02-17T05:25:56.481Z,0.00
2018-02-17T05:26:56.448Z,0.00
2018-02-17T05:27:56.449Z,0.00
2018-02-17T05:28:56.453Z,0.00
2018-02-17T05:29:56.423Z,0.00
2018-02-17T05:30:56.391Z,0.00
2018-02-17T05:31:56.380Z,0.00
2018-02-17T05:32:56.383Z,0.00
2018-02-17T05:33:56.362Z,0.00
2018-02-17T05:34:56.410Z,0.00
2018-02-17T05:35:56.366Z,0.00
2018-02-17T05:36:56.345Z,0.00
2018-02-17T05:37:56.326Z,0.00
2018-02-17T05:38:56.309Z,0.00
2018-02-17T05:39:56.294Z,0.00
2018-02-17T05:40:56.287Z,0.00
2018-02-17T05:41:56.316Z,0.00
2018-02-17T05:42:56.292Z,0.00
2018-02-17T05:43:56.260Z,0.00
2018-02-17T05:44:56.243Z,0.00
2018-02-17T05:45:56.236Z,0.00
2018-02-17T05:46:56.216Z,0.00
2018-02-17T05:47:56.209Z,0.00
2018-02-17T05:48:56.213Z,0.00
2018-02-17T05:49:56.216Z,0.00
2018-02-17T05:50:56.180Z,0.00
2018-02-17T05:51:56.166Z,0.00
2018-02-17T05:52:56.179Z,0.00
2018-02-17T05:53:56.150Z,0.00
2018-02-17T05:54:56.179Z,0.00
2018-02-17T05:55:56.209Z,0.00
2018-02-17T05:56:56.196Z,0.00
2018-02-17T05:57:56.261Z,0.00
2018-02-17T05:58:56.162Z,0.00
2018-02-17T05:59:57.283Z,0.00
2018-02-17T06:00:58.092Z,4.00
2018-02-17T06:01:56.159Z,4.00
2018-02-17T06:02:56.237Z,0.00
2018-02-17T06:03:56.111Z,0.00
2018-02-17T06:04:56.222Z,4.00
2018-02-17T06:05:57.597Z,4.00
2018-02-17T06:06:56.072Z,4.00
2018-02-17T06:07:57.585Z,4.00
2018-02-17T06:08:56.067Z,4.00
2018-02-17T06:09:57.592Z,4.00
2018-02-17T06:10:55.990Z,4.00
2018-02-17T06:11:55.954Z,8.00
2018-02-17T06:12:55.943Z,8.00
2018-02-17T06:13:55.989Z,12.00
2018-02-17T06:14:56.095Z,12.00
2018-02-17T06:15:55.967Z,12.00
2018-02-17T06:16:57.663Z,16.00
2018-02-17T06:17:55.928Z,16.00
2018-02-17T06:18:55.903Z,20.00
2018-02-17T06:19:55.909Z,20.00
2018-02-17T06:20:55.923Z,24.00
2018-02-17T06:21:55.882Z,24.00
2018-02-17T06:22:55.901Z,28.00
2018-02-17T06:23:55.909Z,28.00
2018-02-17T06:24:55.831Z,32.00
2018-02-17T06:25:55.841Z,32.00
2018-02-17T06:26:55.806Z,36.00
2018-02-17T06:27:55.801Z,36.00
2018-02-17T06:28:55.811Z,40.00
2018-02-17T06:29:55.778Z,44.00
2018-02-17T06:30:55.826Z,48.00
2018-02-17T06:31:55.780Z,48.00
2018-02-17T06:32:57.564Z,52.00
2018-02-17T06:33:55.762Z,60.00
2018-02-17T06:34:55.810Z,60.00
2018-02-17T06:35:55.816Z,68.00
2018-02-17T06:36:55.714Z,72.00
2018-02-17T06:37:55.696Z,76.00
2018-02-17T06:38:55.681Z,80.00
2018-02-17T06:39:55.721Z,84.00
2018-02-17T06:40:55.686Z,88.00
2018-02-17T06:41:55.648Z,88.00
2018-02-17T06:42:55.637Z,92.00
2018-02-17T06:43:55.628Z,96.00
2018-02-17T06:44:55.614Z,104.00
2018-02-17T06:45:55.606Z,108.00
2018-02-17T06:46:55.627Z,116.00
2018-02-17T06:47:55.629Z,124.00
2018-02-17T06:48:55.628Z,132.00
2018-02-17T06:49:55.568Z,140.00
2018-02-17T06:50:55.570Z,152.00
2018-02-17T06:51:55.625Z,160.00
2018-02-17T06:52:55.696Z,172.00
2018-02-17T06:53:55.559Z,180.00
2018-02-17T06:54:55.516Z,188.00
2018-02-17T06:55:55.588Z,196.00
2018-02-17T06:56:55.553Z,204.00
2018-02-17T06:57:58.104Z,208.00
2018-02-17T06:58:55.568Z,220.00
2018-02-17T06:59:55.533Z,228.00
2018-02-17T07:00:55.510Z,240.00
2018-02-17T07:01:55.443Z,248.00
2018-02-17T07:02:55.430Z,256.00
2018-02-17T07:03:55.426Z,264.00
2018-02-17T07:04:55.416Z,276.00
2018-02-17T07:05:55.412Z,284.00
2018-02-17T07:06:55.393Z,296.00
2018-02-17T07:07:55.388Z,308.00
2018-02-17T07:08:55.406Z,316.00
2018-02-17T07:09:55.359Z,328.00
2018-02-17T07:10:55.355Z,336.00
2018-02-17T07:11:55.343Z,344.00
2018-02-17T07:12:55.354Z,352.00
2018-02-17T07:13:55.319Z,364.00
2018-02-17T07:14:55.347Z,372.00
2018-02-17T07:15:55.319Z,388.00
2018-02-17T07:16:55.293Z,404.00
2018-02-17T07:17:55.284Z,424.00
2018-02-17T07:18:55.293Z,440.00
2018-02-17T07:19:55.278Z,456.00
2018-02-17T07:20:55.262Z,468.00
2018-02-17T07:21:55.298Z,484.00
2018-02-17T07:22:55.397Z,504.00
2018-02-17T07:23:55.234Z,520.00
2018-02-17T07:24:55.209Z,544.00
2018-02-17T07:25:55.246Z,564.00
2018-02-17T07:26:55.207Z,584.00
2018-02-17T07:27:55.186Z,596.00
2018-02-17T07:28:55.197Z,608.00
2018-02-17T07:29:55.191Z,612.00
2018-02-17T07:30:57.520Z,620.00
2018-02-17T07:35:57.021Z,676.00
2018-02-17T07:36:57.240Z,696.00
2018-02-17T07:38:54.069Z,732.00
2018-02-17T07:45:34.458Z,880.00
2018-02-17T07:46:43.414Z,904.00
2018-02-17T07:48:29.759Z,932.00
2018-02-17T07:49:29.697Z,940.00
2018-02-17T07:51:25.633Z,960.00
2018-02-17T07:52:27.103Z,976.00
2018-02-17T07:53:25.707Z,992.00
2018-02-17T07:54:25.564Z,1016.00
2018-02-17T08:00:31.301Z,1164.00
2018-02-17T08:01:31.251Z,1188.00
2018-02-17T08:03:27.140Z,1220.00
2018-02-17T08:04:26.613Z,1236.00
2018-02-17T08:06:20.976Z,1264.00
2018-02-17T08:07:21.209Z,1284.00
2018-02-17T08:08:21.041Z,1304.00
2018-02-17T08:09:20.969Z,1320.00
2018-02-17T08:10:21.080Z,1352.00
2018-02-17T08:11:20.860Z,1388.00
2018-02-17T08:12:20.859Z,1424.00
2018-02-17T08:13:20.845Z,1464.00
2018-02-17T08:14:20.833Z,1500.00
2018-02-17T08:15:20.829Z,1528.00
2018-02-17T08:16:20.880Z,1560.00
2018-02-17T08:17:20.811Z,1580.00
2018-02-17T08:18:20.819Z,1600.00
2018-02-17T08:19:20.827Z,1612.00
2018-02-17T08:20:23.672Z,1636.00
2018-02-17T08:21:20.782Z,1660.00
2018-02-17T08:22:20.768Z,1684.00
2018-02-17T08:23:20.762Z,1708.00
2018-02-17T08:24:20.788Z,1716.00
2018-02-17T08:25:20.744Z,1740.00
2018-02-17T08:26:20.734Z,1768.00
2018-02-17T08:27:20.732Z,1788.00
2018-02-17T08:28:20.758Z,1824.00
2018-02-17T08:29:20.711Z,1852.00
2018-02-17T08:30:20.700Z,1880.00
2018-02-17T08:31:20.789Z,1912.00
2018-02-17T08:32:20.690Z,1948.00
2018-02-17T08:33:20.679Z,1992.00
2018-02-17T08:34:20.769Z,2032.00
2018-02-17T08:35:20.693Z,2064.00
2018-02-17T08:36:20.661Z,2096.00
2018-02-17T08:37:20.644Z,2112.00
2018-02-17T08:38:20.645Z,2132.00
2018-02-17T08:39:20.661Z,2156.00
2018-02-17T08:40:20.623Z,2168.00
2018-02-17T08:41:20.639Z,2168.00
2018-02-17T08:42:20.603Z,2172.00
2018-02-17T08:43:20.596Z,2168.00
2018-02-17T08:44:20.649Z,2164.00
2018-02-17T08:45:20.621Z,2152.00
2018-02-17T08:46:20.629Z,2152.00
2018-02-17T08:47:20.590Z,2172.00
2018-02-17T08:48:20.552Z,2192.00
2018-02-17T08:49:20.550Z,2228.00
2018-02-17T08:50:20.592Z,2268.00
2018-02-17T08:51:20.537Z,2284.00
2018-02-17T08:52:20.575Z,2296.00
2018-02-17T08:53:20.538Z,2276.00
2018-02-17T08:54:20.507Z,2296.00
2018-02-17T08:55:20.500Z,2316.00
2018-02-17T08:56:20.546Z,2368.00
2018-02-17T08:57:20.484Z,2412.00
2018-02-17T08:58:20.476Z,2452.00
2018-02-17T08:59:20.466Z,2500.00
2018-02-17T09:00:20.492Z,2516.00
2018-02-17T09:01:20.453Z,2512.00
2018-02-17T09:02:20.622Z,2500.00
2018-02-17T09:03:20.579Z,2464.00
2018-02-17T09:04:20.437Z,2416.00
2018-02-17T09:05:20.425Z,2404.00
2018-02-17T09:06:20.416Z,2372.00
2018-02-17T09:07:20.424Z,2352.00
2018-02-17T09:08:20.401Z,2324.00
2018-02-17T09:09:20.400Z,2296.00
2018-02-17T09:10:20.386Z,2248.00
2018-02-17T09:11:20.377Z,2232.00
2018-02-17T09:12:20.380Z,2224.00
2018-02-17T09:13:20.363Z,2216.00
2018-02-17T09:14:20.354Z,2208.00
2018-02-17T09:15:20.348Z,2192.00
2018-02-17T09:16:20.362Z,2196.00
2018-02-17T09:17:20.331Z,2192.00
2018-02-17T09:18:20.324Z,2180.00
2018-02-17T09:19:20.323Z,2168.00
2018-02-17T09:20:20.350Z,2168.00
2018-02-17T09:21:20.305Z,2176.00
2018-02-17T09:22:20.298Z,2224.00
2018-02-17T09:23:20.291Z,2280.00
2018-02-17T09:24:20.284Z,2368.00
2018-02-17T09:25:20.278Z,2456.00
2018-02-17T09:26:20.272Z,2556.00
2018-02-17T09:27:20.300Z,2652.00
2018-02-17T09:28:20.260Z,2756.00
2018-02-17T09:29:20.249Z,2896.00
2018-02-17T09:30:20.245Z,3032.00
2018-02-17T09:31:20.246Z,3092.00
2018-02-17T09:32:20.229Z,3156.00
2018-02-17T09:33:20.222Z,3144.00
2018-02-17T09:34:20.216Z,3032.00
2018-02-17T09:35:20.210Z,2988.00
2018-02-17T09:36:20.203Z,3012.00
2018-02-17T09:37:20.194Z,3144.00
2018-02-17T09:38:20.307Z,3316.00
2018-02-17T09:39:20.183Z,3452.00
2018-02-17T09:40:20.186Z,3560.00
2018-02-17T09:41:20.187Z,3680.00
2018-02-17T09:42:20.161Z,3824.00
2018-02-17T09:43:20.156Z,3988.00
2018-02-17T09:44:20.149Z,3940.00
2018-02-17T09:45:20.143Z,3684.00
2018-02-17T09:46:20.135Z,3764.00
2018-02-17T09:47:20.131Z,3596.00
2018-02-17T09:48:20.125Z,3404.00
2018-02-17T09:49:20.150Z,3268.00
2018-02-17T09:50:20.144Z,3176.00
2018-02-17T09:51:20.119Z,3108.00
2018-02-17T09:52:20.122Z,3084.00
2018-02-17T09:53:20.210Z,3060.00
2018-02-17T09:54:20.343Z,3040.00
2018-02-17T09:55:20.090Z,2976.00
2018-02-17T09:56:20.075Z,2936.00
2018-02-17T09:57:20.067Z,2896.00
2018-02-17T09:58:20.065Z,2856.00
2018-02-17T09:59:20.057Z,2800.00
2018-02-17T10:00:20.051Z,2796.00
2018-02-17T10:01:20.081Z,2796.00
2018-02-17T10:02:20.118Z,2768.00
2018-02-17T10:03:20.085Z,2812.00
2018-02-17T10:06:01.826Z,2972.00
2018-02-17T10:07:01.742Z,2948.00
2018-02-17T10:08:56.590Z,2920.00
2018-02-17T10:11:50.513Z,3036.00
2018-02-17T10:12:50.491Z,3140.00
2018-02-17T10:13:50.994Z,3260.00
2018-02-17T10:14:50.441Z,3340.00
2018-02-17T10:15:50.630Z,3432.00
2018-02-17T10:16:50.480Z,3632.00
2018-02-17T10:17:50.401Z,3756.00
2018-02-17T10:18:50.394Z,3736.00
2018-02-17T10:19:50.385Z,3712.00
2018-02-17T10:20:50.377Z,3644.00
2018-02-17T10:21:50.421Z,3632.00
2018-02-17T10:22:50.367Z,3604.00
2018-02-17T10:23:50.388Z,3600.00
2018-02-17T10:24:50.355Z,3648.00
2018-02-17T10:25:50.346Z,3496.00
2018-02-17T10:26:50.344Z,3644.00
2018-02-17T10:27:50.356Z,3628.00
2018-02-17T10:28:50.336Z,3780.00
2018-02-17T10:29:50.332Z,3948.00
2018-02-17T10:30:50.325Z,3984.00
2018-02-17T10:31:50.334Z,3960.00
2018-02-17T10:32:50.309Z,4484.00
2018-02-17T10:33:50.297Z,4756.00
2018-02-17T10:34:50.327Z,4944.00
2018-02-17T10:35:53.009Z,4980.00
2018-02-17T10:36:50.330Z,4824.00
2018-02-17T10:38:46.186Z,5136.00
2018-02-17T10:39:46.169Z,4912.00
2018-02-17T10:41:40.599Z,4936.00
2018-02-17T10:43:31.733Z,5004.00
2018-02-17T10:44:44.557Z,4664.00
2018-02-17T10:45:46.754Z,4264.00
2018-02-17T10:47:39.242Z,3820.00
2018-02-17T10:48:39.195Z,3684.00
2018-02-17T10:50:34.655Z,3572.00
2018-02-17T10:51:34.386Z,3472.00
2018-02-17T10:53:31.317Z,3392.00
2018-02-17T10:54:31.414Z,3344.00
2018-02-17T10:55:31.260Z,3276.00
2018-02-17T10:56:31.294Z,3216.00
2018-02-17T10:57:31.114Z,3192.00
2018-02-17T10:58:31.150Z,3152.00
2018-02-17T10:59:31.109Z,3152.00
2018-02-17T11:00:31.133Z,3148.00
2018-02-17T11:01:33.644Z,3156.00
2018-02-17T11:02:31.341Z,3152.00
2018-02-17T11:03:33.656Z,3132.00
2018-02-17T11:04:31.074Z,3132.00
2018-02-17T11:05:31.069Z,3144.00
2018-02-17T11:06:31.225Z,3176.00
2018-02-17T11:07:31.075Z,3208.00
2018-02-17T11:08:31.055Z,3224.00
2018-02-17T11:09:31.046Z,3260.00
2018-02-17T11:10:31.050Z,3300.00
2018-02-17T11:11:31.045Z,3328.00
2018-02-17T11:12:31.031Z,3360.00
2018-02-17T11:13:31.027Z,3416.00
2018-02-17T11:16:26.507Z,3440.00
2018-02-17T11:23:03.020Z,3440.00
2018-02-17T11:25:11.260Z,3344.00
2018-02-17T11:28:19.404Z,3192.00
2018-02-17T11:31:14.742Z,3024.00
2018-02-17T11:32:17.414Z,2980.00
2018-02-17T11:38:32.436Z,2916.00
2018-02-17T11:38:52.702Z,2928.00
2018-02-17T11:39:55.608Z,2924.00
2018-02-17T11:46:29.396Z,2904.00
2018-02-17T11:49:57.917Z,2884.00
2018-02-17T11:54:23.013Z,2756.00
2018-02-17T11:55:18.553Z,2732.00
2018-02-17T11:56:18.431Z,2728.00
2018-02-17T11:57:18.351Z,2732.00
2018-02-17T11:58:18.910Z,2756.00
2018-02-17T11:59:18.275Z,2764.00
2018-02-17T12:00:18.275Z,2768.00
2018-02-17T12:01:18.298Z,2772.00
2018-02-17T12:02:18.375Z,2776.00
2018-02-17T12:03:21.315Z,2768.00
2018-02-17T12:04:18.641Z,2752.00
2018-02-17T12:05:18.603Z,2728.00
2018-02-17T12:06:43.110Z,2716.00
2018-02-17T12:08:18.383Z,2724.00
2018-02-17T12:09:15.322Z,2736.00
2018-02-17T12:10:26.810Z,2736.00
2018-02-17T12:11:16.176Z,2736.00
2018-02-17T12:12:15.081Z,2732.00
2018-02-17T12:13:15.063Z,2728.00
2018-02-17T12:14:15.060Z,2728.00
2018-02-17T12:15:15.056Z,2712.00
2018-02-17T12:16:15.194Z,2692.00
2018-02-17T12:17:16.886Z,2692.00
2018-02-17T12:18:15.033Z,2668.00
2018-02-17T12:19:15.050Z,2640.00
2018-02-17T12:20:15.021Z,2604.00
2018-02-17T12:21:15.015Z,2584.00
2018-02-17T12:22:15.009Z,2568.00
2018-02-17T12:23:15.004Z,2560.00
2018-02-17T12:24:15.003Z,2556.00
2018-02-17T12:25:15.011Z,2544.00
2018-02-17T12:26:14.988Z,2520.00
2018-02-17T12:27:14.985Z,2480.00
2018-02-17T12:28:15.014Z,2448.00
2018-02-17T12:29:14.971Z,2424.00
2018-02-17T12:30:15.015Z,2412.00
2018-02-17T12:31:14.963Z,2404.00
2018-02-17T12:32:14.984Z,2408.00
2018-02-17T12:33:14.946Z,2416.00
2018-02-17T12:34:14.953Z,2420.00
2018-02-17T12:35:14.978Z,2404.00
2018-02-17T12:36:14.933Z,2372.00
2018-02-17T12:37:14.927Z,2340.00
2018-02-17T12:38:14.916Z,2316.00
2018-02-17T12:39:14.911Z,2300.00
2018-02-17T12:40:15.058Z,2292.00
2018-02-17T12:41:14.905Z,2292.00
2018-02-17T12:42:14.896Z,2324.00
2018-02-17T12:43:14.896Z,2344.00
2018-02-17T12:44:14.895Z,2340.00
2018-02-17T12:45:14.877Z,2304.00
2018-02-17T12:46:14.932Z,2292.00
2018-02-17T12:47:14.870Z,2252.00
2018-02-17T12:48:14.899Z,2280.00
2018-02-17T12:49:14.855Z,2260.00
2018-02-17T12:50:14.857Z,2216.00
2018-02-17T12:51:14.844Z,2176.00
2018-02-17T12:52:14.838Z,2140.00
2018-02-17T12:53:14.833Z,2124.00
2018-02-17T12:54:14.830Z,2100.00
2018-02-17T12:55:14.826Z,2060.00
2018-02-17T12:56:14.815Z,2016.00
2018-02-17T12:57:14.810Z,1912.00
2018-02-17T12:58:14.804Z,1900.00
2018-02-17T12:59:14.976Z,1896.00
2018-02-17T13:00:14.791Z,1984.00
2018-02-17T13:01:14.790Z,2012.00
2018-02-17T13:02:14.782Z,2016.00
2018-02-17T13:03:14.833Z,2008.00
2018-02-17T13:04:14.767Z,2024.00
2018-02-17T13:05:14.764Z,2036.00
2018-02-17T13:06:14.757Z,2036.00
2018-02-17T13:07:14.803Z,2028.00
2018-02-17T13:08:14.750Z,2028.00
2018-02-17T13:09:14.738Z,2020.00
2018-02-17T13:10:14.736Z,2004.00
2018-02-17T13:11:14.731Z,1992.00
2018-02-17T13:12:14.727Z,1980.00
2018-02-17T13:13:14.718Z,1960.00
2018-02-17T13:14:14.713Z,1960.00
2018-02-17T13:15:14.708Z,1952.00
2018-02-17T13:16:14.699Z,1940.00
2018-02-17T13:17:14.692Z,1940.00
2018-02-17T13:18:14.688Z,1940.00
2018-02-17T13:19:14.682Z,1924.00
2018-02-17T13:20:14.675Z,1920.00
2018-02-17T13:21:14.669Z,1920.00
2018-02-17T13:22:14.665Z,1904.00
2018-02-17T13:23:14.661Z,1900.00
2018-02-17T13:24:14.649Z,1900.00
2018-02-17T13:25:14.649Z,1884.00
2018-02-17T13:26:14.642Z,1852.00
2018-02-17T13:27:14.635Z,1816.00
2018-02-17T13:28:16.014Z,1780.00
2018-02-17T13:31:00.393Z,1668.00
2018-02-17T13:31:47.460Z,1620.00
2018-02-17T13:32:47.880Z,1616.00
2018-02-17T13:33:47.308Z,1616.00
2018-02-17T13:34:47.141Z,1620.00
2018-02-17T13:35:47.197Z,1636.00
2018-02-17T13:36:47.190Z,1680.00
2018-02-17T13:37:47.100Z,1716.00
2018-02-17T13:40:31.476Z,1760.00
2018-02-17T13:41:30.912Z,1748.00
2018-02-17T13:43:24.948Z,1684.00
2018-02-17T13:44:25.037Z,1632.00
2018-02-17T13:46:19.246Z,1516.00
2018-02-17T13:47:19.627Z,1480.00
2018-02-17T13:49:13.581Z,1468.00